Abie, Nebraska
Current Conditions -  °F | °C
As of 10:55 AM on Thursday 30 Oct 2014 (Local Time) from KAHQ Reporting Station
Clear Clear  
Wind Chill: 55°   Ceiling: Unl
Heat Index: 55°   Visibility: 10mi
Dew Point: 37°   Wind: 14mph
Humidity: 49%   Direction: 330°NNW
Pressure: 30.09"   Gusts: 21mph
Location:  41.33°N, 96.95°W
Report Text: KAHQ 301555Z AUTO 33012G18KT 10SM CLR 13/03 A3009 RMK AO2 T01300026
Loading
Personal Weather Stations






























Interactive Weather Map
Tropical Storm Tracking
New forecast layout! Learn more

10-Day Weather Forecast

Advertisements
Track Severe Weather on mobile